River Kern, California
Current Conditions -  °F | °C
As of 12:56 PM on Tuesday 27 Jan 2015 (Local Time) from KNID Reporting Station
Broken Clouds Broken Clouds  
Wind Chill: 57°   Ceiling: 6000
Heat Index: 57°   Visibility: 10mi
Dew Point: 49°   Wind: 7mph
Humidity: 74%   Direction: 140°SE
Pressure: 30.19"   Gusts: NA
Location:  35.8452°N, 118.355°W
Report Text: KNID 272056Z 14006KT 10SM FEW015 SCT025 BKN060 14/09 A3019 RMK AO2 SLP225 T01390094 $
Loading
Personal Weather Stations






























Interactive Weather Map New forecast layout! Learn more

10-Day Weather Forecast

Advertisements
Track Severe Weather on mobile